sensor_id;sensor_type;location;lat;lon;timestamp;temperature;humidity
8269;DHT22;4174;48.304;16.364;2024-03-29T00:02:24;8.70;99.90
8269;DHT22;4174;48.304;16.364;2024-03-29T00:08:28;8.70;99.90
8269;DHT22;4174;48.304;16.364;2024-03-29T00:14:31;8.60;99.90
8269;DHT22;4174;48.304;16.364;2024-03-29T00:20:34;8.50;99.90
8269;DHT22;4174;48.304;16.364;2024-03-29T00:26:39;8.40;99.90
8269;DHT22;4174;48.304;16.364;2024-03-29T00:32:44;8.40;99.90
8269;DHT22;4174;48.304;16.364;2024-03-29T00:38:48;8.30;99.90
8269;DHT22;4174;48.304;16.364;2024-03-29T00:44:51;8.30;99.90
8269;DHT22;4174;48.304;16.364;2024-03-29T00:50:54;8.20;99.90
8269;DHT22;4174;48.304;16.364;2024-03-29T00:56:58;8.40;99.90
8269;DHT22;4174;48.304;16.364;2024-03-29T01:03:01;8.50;99.90
8269;DHT22;4174;48.304;16.364;2024-03-29T01:09:06;8.50;99.90
8269;DHT22;4174;48.304;16.364;2024-03-29T01:15:09;8.50;99.90
8269;DHT22;4174;48.304;16.364;2024-03-29T01:21:13;8.70;99.90
8269;DHT22;4174;48.304;16.364;2024-03-29T01:27:16;8.60;99.90
8269;DHT22;4174;48.304;16.364;2024-03-29T01:33:21;8.60;99.90
8269;DHT22;4174;48.304;16.364;2024-03-29T01:39:24;8.50;99.90
8269;DHT22;4174;48.304;16.364;2024-03-29T01:45:27;8.50;99.90
8269;DHT22;4174;48.304;16.364;2024-03-29T01:51:30;8.60;99.90
8269;DHT22;4174;48.304;16.364;2024-03-29T01:57:33;8.40;99.90
8269;DHT22;4174;48.304;16.364;2024-03-29T02:03:36;8.30;99.90
8269;DHT22;4174;48.304;16.364;2024-03-29T02:09:40;8.60;99.90
8269;DHT22;4174;48.304;16.364;2024-03-29T02:15:44;8.20;99.90
8269;DHT22;4174;48.304;16.364;2024-03-29T02:21:48;8.00;99.90
8269;DHT22;4174;48.304;16.364;2024-03-29T02:27:51;7.70;99.90
8269;DHT22;4174;48.304;16.364;2024-03-29T02:33:54;7.30;99.90
8269;DHT22;4174;48.304;16.364;2024-03-29T02:39:58;7.30;99.90
8269;DHT22;4174;48.304;16.364;2024-03-29T02:46:02;7.70;99.90
8269;DHT22;4174;48.304;16.364;2024-03-29T02:52:06;7.50;99.90
8269;DHT22;4174;48.304;16.364;2024-03-29T02:58:10;7.40;99.90
8269;DHT22;4174;48.304;16.364;2024-03-29T03:04:15;7.60;99.90
8269;DHT22;4174;48.304;16.364;2024-03-29T03:10:18;7.60;99.90
8269;DHT22;4174;48.304;16.364;2024-03-29T03:16:27;7.50;99.90
8269;DHT22;4174;48.304;16.364;2024-03-29T03:22:30;7.20;99.90
8269;DHT22;4174;48.304;16.364;2024-03-29T03:28:34;7.20;99.90
8269;DHT22;4174;48.304;16.364;2024-03-29T03:34:37;7.30;99.90
8269;DHT22;4174;48.304;16.364;2024-03-29T03:40:41;7.60;99.90
8269;DHT22;4174;48.304;16.364;2024-03-29T03:46:44;7.80;99.90
8269;DHT22;4174;48.304;16.364;2024-03-29T03:52:47;7.90;99.90
8269;DHT22;4174;48.304;16.364;2024-03-29T03:58:51;7.70;99.90
8269;DHT22;4174;48.304;16.364;2024-03-29T04:04:55;7.70;99.90
8269;DHT22;4174;48.304;16.364;2024-03-29T04:11:01;7.30;99.90
8269;DHT22;4174;48.304;16.364;2024-03-29T04:17:08;7.30;99.90
8269;DHT22;4174;48.304;16.364;2024-03-29T04:23:11;7.50;99.90
8269;DHT22;4174;48.304;16.364;2024-03-29T04:29:14;7.50;99.90
8269;DHT22;4174;48.304;16.364;2024-03-29T04:35:18;7.60;99.90
8269;DHT22;4174;48.304;16.364;2024-03-29T04:41:22;7.70;99.90
8269;DHT22;4174;48.304;16.364;2024-03-29T04:47:26;7.60;99.90
8269;DHT22;4174;48.304;16.364;2024-03-29T04:53:28;7.70;99.90
8269;DHT22;4174;48.304;16.364;2024-03-29T04:59:33;7.80;99.90
8269;DHT22;4174;48.304;16.364;2024-03-29T05:05:36;7.90;99.90
8269;DHT22;4174;48.304;16.364;2024-03-29T05:11:39;7.80;99.90
8269;DHT22;4174;48.304;16.364;2024-03-29T05:17:44;8.10;99.90
8269;DHT22;4174;48.304;16.364;2024-03-29T05:23:48;8.30;99.90
8269;DHT22;4174;48.304;16.364;2024-03-29T05:29:51;8.50;99.90
8269;DHT22;4174;48.304;16.364;2024-03-29T05:35:55;8.80;99.90
8269;DHT22;4174;48.304;16.364;2024-03-29T05:41:59;8.90;99.90
8269;DHT22;4174;48.304;16.364;2024-03-29T05:48:02;9.50;99.90
8269;DHT22;4174;48.304;16.364;2024-03-29T05:54:07;9.30;99.90
8269;DHT22;4174;48.304;16.364;2024-03-29T06:00:13;9.70;99.90
8269;DHT22;4174;48.304;16.364;2024-03-29T06:06:17;9.70;99.90
8269;DHT22;4174;48.304;16.364;2024-03-29T06:12:21;9.90;99.90
8269;DHT22;4174;48.304;16.364;2024-03-29T06:18:25;10.30;99.90
8269;DHT22;4174;48.304;16.364;2024-03-29T06:24:29;10.50;99.90
8269;DHT22;4174;48.304;16.364;2024-03-29T06:30:32;10.60;99.90
8269;DHT22;4174;48.304;16.364;2024-03-29T06:36:36;11.00;99.90
8269;DHT22;4174;48.304;16.364;2024-03-29T06:42:42;11.30;99.90
8269;DHT22;4174;48.304;16.364;2024-03-29T06:48:45;11.50;99.90
8269;DHT22;4174;48.304;16.364;2024-03-29T06:54:49;11.80;99.90
8269;DHT22;4174;48.304;16.364;2024-03-29T07:00:52;12.70;99.90
8269;DHT22;4174;48.304;16.364;2024-03-29T07:06:56;13.80;94.50
8269;DHT22;4174;48.304;16.364;2024-03-29T07:12:59;13.80;79.20
8269;DHT22;4174;48.304;16.364;2024-03-29T07:19:03;14.40;78.90
8269;DHT22;4174;48.304;16.364;2024-03-29T07:25:06;15.20;73.10
8269;DHT22;4174;48.304;16.364;2024-03-29T07:31:11;14.80;69.10
8269;DHT22;4174;48.304;16.364;2024-03-29T07:37:15;14.80;69.10
8269;DHT22;4174;48.304;16.364;2024-03-29T07:43:18;16.00;70.10
8269;DHT22;4174;48.304;16.364;2024-03-29T07:49:22;16.00;70.10
8269;DHT22;4174;48.304;16.364;2024-03-29T07:55:25;15.40;75.40
8269;DHT22;4174;48.304;16.364;2024-03-29T08:01:29;16.10;79.20
8269;DHT22;4174;48.304;16.364;2024-03-29T08:07:33;16.40;75.60
8269;DHT22;4174;48.304;16.364;2024-03-29T08:13:37;16.40;75.40
8269;DHT22;4174;48.304;16.364;2024-03-29T08:19:40;16.30;80.30
8269;DHT22;4174;48.304;16.364;2024-03-29T08:25:43;16.30;80.20
8269;DHT22;4174;48.304;16.364;2024-03-29T08:31:46;17.10;81.00
8269;DHT22;4174;48.304;16.364;2024-03-29T08:37:50;16.60;85.40
8269;DHT22;4174;48.304;16.364;2024-03-29T08:43:53;17.30;85.10
8269;DHT22;4174;48.304;16.364;2024-03-29T08:49:57;18.00;85.40
8269;DHT22;4174;48.304;16.364;2024-03-29T08:56:01;17.80;90.80
8269;DHT22;4174;48.304;16.364;2024-03-29T09:02:05;17.90;87.80
8269;DHT22;4174;48.304;16.364;2024-03-29T09:08:09;18.50;89.70
8269;DHT22;4174;48.304;16.364;2024-03-29T09:14:12;18.20;90.90
8269;DHT22;4174;48.304;16.364;2024-03-29T09:20:16;19.30;88.80
8269;DHT22;4174;48.304;16.364;2024-03-29T09:26:19;19.80;85.50
8269;DHT22;4174;48.304;16.364;2024-03-29T09:32:23;20.10;82.70
8269;DHT22;4174;48.304;16.364;2024-03-29T09:38:26;19.40;84.30
8269;DHT22;4174;48.304;16.364;2024-03-29T09:44:31;19.60;83.90
8269;DHT22;4174;48.304;16.364;2024-03-29T09:50:32;18.60;89.90
8269;DHT22;4174;48.304;16.364;2024-03-29T09:56:35;19.30;88.40
8269;DHT22;4174;48.304;16.364;2024-03-29T10:02:38;20.00;90.60
8269;DHT22;4174;48.304;16.364;2024-03-29T10:08:42;20.40;82.80
8269;DHT22;4174;48.304;16.364;2024-03-29T10:14:46;19.70;82.20
8269;DHT22;4174;48.304;16.364;2024-03-29T10:20:59;19.70;82.20
8269;DHT22;4174;48.304;16.364;2024-03-29T10:27:01;19.80;84.90
8269;DHT22;4174;48.304;16.364;2024-03-29T10:33:09;20.40;81.70
8269;DHT22;4174;48.304;16.364;2024-03-29T10:39:14;21.00;77.00
8269;DHT22;4174;48.304;16.364;2024-03-29T10:45:18;20.10;80.30
8269;DHT22;4174;48.304;16.364;2024-03-29T10:51:21;20.10;80.20
8269;DHT22;4174;48.304;16.364;2024-03-29T10:57:25;19.80;82.30
8269;DHT22;4174;48.304;16.364;2024-03-29T11:03:44;19.60;82.50
8269;DHT22;4174;48.304;16.364;2024-03-29T11:09:45;19.00;87.30
8269;DHT22;4174;48.304;16.364;2024-03-29T11:15:48;19.20;90.00
8269;DHT22;4174;48.304;16.364;2024-03-29T11:21:52;19.30;90.50
8269;DHT22;4174;48.304;16.364;2024-03-29T11:28:03;19.20;90.50
8269;DHT22;4174;48.304;16.364;2024-03-29T11:33:58;19.30;91.50
8269;DHT22;4174;48.304;16.364;2024-03-29T11:40:01;19.50;90.00
8269;DHT22;4174;48.304;16.364;2024-03-29T11:46:05;20.60;87.70
8269;DHT22;4174;48.304;16.364;2024-03-29T11:52:08;20.60;81.90
8269;DHT22;4174;48.304;16.364;2024-03-29T11:58:11;19.80;85.60
8269;DHT22;4174;48.304;16.364;2024-03-29T12:04:20;19.40;90.10
8269;DHT22;4174;48.304;16.364;2024-03-29T12:10:29;20.50;90.00
8269;DHT22;4174;48.304;16.364;2024-03-29T12:16:41;20.50;89.80
8269;DHT22;4174;48.304;16.364;2024-03-29T12:22:35;20.60;88.30
8269;DHT22;4174;48.304;16.364;2024-03-29T12:28:39;20.90;88.90
8269;DHT22;4174;48.304;16.364;2024-03-29T12:34:43;21.60;81.60
8269;DHT22;4174;48.304;16.364;2024-03-29T12:40:47;21.90;78.90
8269;DHT22;4174;48.304;16.364;2024-03-29T12:46:50;21.40;80.70
8269;DHT22;4174;48.304;16.364;2024-03-29T12:52:54;21.80;77.90
8269;DHT22;4174;48.304;16.364;2024-03-29T12:58:56;22.00;73.30
8269;DHT22;4174;48.304;16.364;2024-03-29T13:05:00;21.60;74.10
8269;DHT22;4174;48.304;16.364;2024-03-29T13:11:04;22.20;76.30
8269;DHT22;4174;48.304;16.364;2024-03-29T13:17:08;22.10;70.60
8269;DHT22;4174;48.304;16.364;2024-03-29T13:23:11;22.40;67.00
8269;DHT22;4174;48.304;16.364;2024-03-29T13:29:14;22.70;68.10
8269;DHT22;4174;48.304;16.364;2024-03-29T13:35:18;22.20;67.20
8269;DHT22;4174;48.304;16.364;2024-03-29T13:41:21;22.10;69.10
8269;DHT22;4174;48.304;16.364;2024-03-29T13:47:25;22.10;68.10
8269;DHT22;4174;48.304;16.364;2024-03-29T13:53:29;23.10;65.10
8269;DHT22;4174;48.304;16.364;2024-03-29T13:59:33;23.10;65.00
8269;DHT22;4174;48.304;16.364;2024-03-29T14:05:37;22.60;64.70
8269;DHT22;4174;48.304;16.364;2024-03-29T14:11:40;23.00;66.20
8269;DHT22;4174;48.304;16.364;2024-03-29T14:17:46;23.70;66.50
8269;DHT22;4174;48.304;16.364;2024-03-29T14:23:49;23.60;66.40
8269;DHT22;4174;48.304;16.364;2024-03-29T14:29:53;24.20;61.90
8269;DHT22;4174;48.304;16.364;2024-03-29T14:35:57;23.80;61.20
8269;DHT22;4174;48.304;16.364;2024-03-29T14:42:00;23.80;62.60
8269;DHT22;4174;48.304;16.364;2024-03-29T14:48:05;23.40;61.30
8269;DHT22;4174;48.304;16.364;2024-03-29T14:54:09;23.30;59.60
8269;DHT22;4174;48.304;16.364;2024-03-29T15:00:14;23.50;58.90
8269;DHT22;4174;48.304;16.364;2024-03-29T15:06:19;23.70;58.70
8269;DHT22;4174;48.304;16.364;2024-03-29T15:12:22;23.60;58.20
8269;DHT22;4174;48.304;16.364;2024-03-29T15:18:26;23.30;57.60
8269;DHT22;4174;48.304;16.364;2024-03-29T15:24:28;23.00;57.70
8269;DHT22;4174;48.304;16.364;2024-03-29T15:30:32;23.10;57.50
8269;DHT22;4174;48.304;16.364;2024-03-29T15:36:36;22.90;58.90
8269;DHT22;4174;48.304;16.364;2024-03-29T15:42:38;22.70;57.90
8269;DHT22;4174;48.304;16.364;2024-03-29T15:48:42;22.40;57.80
8269;DHT22;4174;48.304;16.364;2024-03-29T15:54:46;22.10;60.10
8269;DHT22;4174;48.304;16.364;2024-03-29T16:00:49;21.70;61.10
8269;DHT22;4174;48.304;16.364;2024-03-29T16:06:52;21.60;61.50
8269;DHT22;4174;48.304;16.364;2024-03-29T16:12:56;21.60;62.00
8269;DHT22;4174;48.304;16.364;2024-03-29T16:19:00;21.40;61.10
8269;DHT22;4174;48.304;16.364;2024-03-29T16:25:06;21.30;61.70
8269;DHT22;4174;48.304;16.364;2024-03-29T16:31:11;20.40;65.80
8269;DHT22;4174;48.304;16.364;2024-03-29T16:37:16;20.00;68.00
8269;DHT22;4174;48.304;16.364;2024-03-29T16:43:21;19.80;69.60
8269;DHT22;4174;48.304;16.364;2024-03-29T16:49:25;19.80;69.60
8269;DHT22;4174;48.304;16.364;2024-03-29T16:55:28;19.80;70.80
8269;DHT22;4174;48.304;16.364;2024-03-29T17:01:33;19.80;71.20
8269;DHT22;4174;48.304;16.364;2024-03-29T17:07:37;19.60;75.30
8269;DHT22;4174;48.304;16.364;2024-03-29T17:13:41;19.50;75.20
8269;DHT22;4174;48.304;16.364;2024-03-29T17:19:44;19.40;76.40
8269;DHT22;4174;48.304;16.364;2024-03-29T17:25:48;19.10;77.50
8269;DHT22;4174;48.304;16.364;2024-03-29T17:31:52;19.20;78.50
8269;DHT22;4174;48.304;16.364;2024-03-29T17:37:55;19.20;79.70
8269;DHT22;4174;48.304;16.364;2024-03-29T17:43:58;18.80;79.50
8269;DHT22;4174;48.304;16.364;2024-03-29T17:50:02;18.80;80.10
8269;DHT22;4174;48.304;16.364;2024-03-29T17:56:07;18.50;80.80
8269;DHT22;4174;48.304;16.364;2024-03-29T18:02:10;18.60;81.10
8269;DHT22;4174;48.304;16.364;2024-03-29T18:08:14;18.60;80.90
8269;DHT22;4174;48.304;16.364;2024-03-29T18:14:17;18.70;82.80
8269;DHT22;4174;48.304;16.364;2024-03-29T18:20:20;18.80;81.70
8269;DHT22;4174;48.304;16.364;2024-03-29T18:26:24;18.60;82.10
8269;DHT22;4174;48.304;16.364;2024-03-29T18:32:27;18.80;81.70
8269;DHT22;4174;48.304;16.364;2024-03-29T18:38:31;18.80;80.90
8269;DHT22;4174;48.304;16.364;2024-03-29T18:44:34;18.70;82.00
8269;DHT22;4174;48.304;16.364;2024-03-29T18:50:38;18.10;82.50
8269;DHT22;4174;48.304;16.364;2024-03-29T18:56:42;18.00;84.20
8269;DHT22;4174;48.304;16.364;2024-03-29T19:02:45;17.90;84.80
8269;DHT22;4174;48.304;16.364;2024-03-29T19:08:49;17.70;86.70
8269;DHT22;4174;48.304;16.364;2024-03-29T19:14:53;17.90;89.10
8269;DHT22;4174;48.304;16.364;2024-03-29T19:20:56;17.90;89.10
8269;DHT22;4174;48.304;16.364;2024-03-29T19:27:01;17.90;90.60
8269;DHT22;4174;48.304;16.364;2024-03-29T19:33:05;17.90;90.80
8269;DHT22;4174;48.304;16.364;2024-03-29T19:39:09;17.80;92.20
8269;DHT22;4174;48.304;16.364;2024-03-29T19:45:13;17.40;90.70
8269;DHT22;4174;48.304;16.364;2024-03-29T19:51:17;17.00;92.00
8269;DHT22;4174;48.304;16.364;2024-03-29T19:57:21;17.10;92.40
8269;DHT22;4174;48.304;16.364;2024-03-29T20:03:24;17.00;92.50
8269;DHT22;4174;48.304;16.364;2024-03-29T20:09:28;16.90;92.50
8269;DHT22;4174;48.304;16.364;2024-03-29T20:15:35;16.80;92.50
8269;DHT22;4174;48.304;16.364;2024-03-29T20:21:39;17.10;92.40
8269;DHT22;4174;48.304;16.364;2024-03-29T20:27:42;17.10;92.60
8269;DHT22;4174;48.304;16.364;2024-03-29T20:33:46;17.20;93.40
8269;DHT22;4174;48.304;16.364;2024-03-29T20:39:50;17.00;93.20
8269;DHT22;4174;48.304;16.364;2024-03-29T20:45:54;17.10;95.00
8269;DHT22;4174;48.304;16.364;2024-03-29T20:51:58;17.10;95.30
8269;DHT22;4174;48.304;16.364;2024-03-29T20:58:05;16.50;93.60
8269;DHT22;4174;48.304;16.364;2024-03-29T21:04:08;16.50;93.60
8269;DHT22;4174;48.304;16.364;2024-03-29T21:10:17;16.70;93.60
8269;DHT22;4174;48.304;16.364;2024-03-29T21:16:21;16.60;93.70
8269;DHT22;4174;48.304;16.364;2024-03-29T21:22:25;16.80;93.60
8269;DHT22;4174;48.304;16.364;2024-03-29T21:28:29;16.90;94.80
8269;DHT22;4174;48.304;16.364;2024-03-29T21:34:33;16.70;95.40
8269;DHT22;4174;48.304;16.364;2024-03-29T21:40:36;16.60;98.70
8269;DHT22;4174;48.304;16.364;2024-03-29T21:46:41;16.50;99.80
8269;DHT22;4174;48.304;16.364;2024-03-29T21:52:47;16.30;99.90
8269;DHT22;4174;48.304;16.364;2024-03-29T21:58:51;16.30;99.90
8269;DHT22;4174;48.304;16.364;2024-03-29T22:04:55;16.20;99.90
8269;DHT22;4174;48.304;16.364;2024-03-29T22:10:58;16.10;99.90
8269;DHT22;4174;48.304;16.364;2024-03-29T22:17:03;15.80;99.90
8269;DHT22;4174;48.304;16.364;2024-03-29T22:23:07;15.60;99.90
8269;DHT22;4174;48.304;16.364;2024-03-29T22:29:12;15.00;99.90
8269;DHT22;4174;48.304;16.364;2024-03-29T22:35:16;15.00;99.90
8269;DHT22;4174;48.304;16.364;2024-03-29T22:41:20;15.00;99.90
8269;DHT22;4174;48.304;16.364;2024-03-29T22:47:24;15.00;99.90
8269;DHT22;4174;48.304;16.364;2024-03-29T22:53:27;14.90;99.90
8269;DHT22;4174;48.304;16.364;2024-03-29T22:59:32;14.80;99.90
8269;DHT22;4174;48.304;16.364;2024-03-29T23:05:36;14.80;99.90
8269;DHT22;4174;48.304;16.364;2024-03-29T23:11:40;14.70;99.90
8269;DHT22;4174;48.304;16.364;2024-03-29T23:17:43;14.70;99.90
8269;DHT22;4174;48.304;16.364;2024-03-29T23:23:49;14.70;99.90
8269;DHT22;4174;48.304;16.364;2024-03-29T23:29:52;14.60;99.90
8269;DHT22;4174;48.304;16.364;2024-03-29T23:35:55;14.60;99.90
8269;DHT22;4174;48.304;16.364;2024-03-29T23:41:59;14.50;99.90
8269;DHT22;4174;48.304;16.364;2024-03-29T23:48:02;14.50;99.90
8269;DHT22;4174;48.304;16.364;2024-03-29T23:54:06;14.40;99.90
